sensor_id;sensor_type;location;lat;lon;timestamp;P1;durP1;ratioP1;P2;durP2;ratioP2
34030;SDS011;20319;28.466;-16.274;2024-01-11T00:01:52;11.82;;;9.18;;
34030;SDS011;20319;28.466;-16.274;2024-01-11T00:04:18;9.50;;;8.32;;
34030;SDS011;20319;28.466;-16.274;2024-01-11T00:06:44;10.95;;;7.47;;
34030;SDS011;20319;28.466;-16.274;2024-01-11T00:09:10;11.63;;;7.25;;
34030;SDS011;20319;28.466;-16.274;2024-01-11T00:11:35;10.80;;;7.55;;
34030;SDS011;20319;28.466;-16.274;2024-01-11T00:14:01;8.13;;;6.68;;
34030;SDS011;20319;28.466;-16.274;2024-01-11T00:16:27;9.00;;;7.82;;
34030;SDS011;20319;28.466;-16.274;2024-01-11T00:18:52;9.32;;;6.55;;
34030;SDS011;20319;28.466;-16.274;2024-01-11T00:21:18;9.75;;;6.72;;
34030;SDS011;20319;28.466;-16.274;2024-01-11T00:23:43;9.02;;;7.38;;
34030;SDS011;20319;28.466;-16.274;2024-01-11T00:26:12;13.43;;;6.57;;
34030;SDS011;20319;28.466;-16.274;2024-01-11T00:28:38;8.60;;;6.43;;
34030;SDS011;20319;28.466;-16.274;2024-01-11T00:31:03;9.45;;;6.25;;
34030;SDS011;20319;28.466;-16.274;2024-01-11T00:33:29;6.43;;;4.50;;
34030;SDS011;20319;28.466;-16.274;2024-01-11T00:35:55;8.50;;;5.05;;
34030;SDS011;20319;28.466;-16.274;2024-01-11T00:38:21;6.53;;;4.65;;
34030;SDS011;20319;28.466;-16.274;2024-01-11T00:40:46;6.13;;;4.80;;
34030;SDS011;20319;28.466;-16.274;2024-01-11T00:43:13;6.43;;;4.18;;
34030;SDS011;20319;28.466;-16.274;2024-01-11T00:45:39;11.68;;;5.18;;
34030;SDS011;20319;28.466;-16.274;2024-01-11T00:48:04;7.07;;;4.05;;
34030;SDS011;20319;28.466;-16.274;2024-01-11T00:50:30;6.53;;;4.10;;
34030;SDS011;20319;28.466;-16.274;2024-01-11T00:52:56;5.93;;;3.50;;
34030;SDS011;20319;28.466;-16.274;2024-01-11T00:55:22;7.22;;;4.20;;
34030;SDS011;20319;28.466;-16.274;2024-01-11T00:57:49;7.93;;;4.65;;
34030;SDS011;20319;28.466;-16.274;2024-01-11T01:00:15;7.03;;;3.80;;
34030;SDS011;20319;28.466;-16.274;2024-01-11T01:02:41;8.77;;;5.15;;
34030;SDS011;20319;28.466;-16.274;2024-01-11T01:05:07;8.38;;;5.05;;
34030;SDS011;20319;28.466;-16.274;2024-01-11T01:07:33;9.10;;;6.90;;
34030;SDS011;20319;28.466;-16.274;2024-01-11T01:09:59;12.18;;;7.28;;
34030;SDS011;20319;28.466;-16.274;2024-01-11T01:12:25;11.02;;;6.85;;
34030;SDS011;20319;28.466;-16.274;2024-01-11T01:14:51;13.68;;;9.02;;
34030;SDS011;20319;28.466;-16.274;2024-01-11T01:17:16;11.43;;;8.05;;
34030;SDS011;20319;28.466;-16.274;2024-01-11T01:19:43;14.20;;;7.15;;
34030;SDS011;20319;28.466;-16.274;2024-01-11T01:22:09;10.98;;;6.80;;
34030;SDS011;20319;28.466;-16.274;2024-01-11T01:24:34;10.20;;;7.68;;
34030;SDS011;20319;28.466;-16.274;2024-01-11T01:27:00;13.70;;;9.45;;
34030;SDS011;20319;28.466;-16.274;2024-01-11T01:29:26;15.75;;;9.73;;
34030;SDS011;20319;28.466;-16.274;2024-01-11T01:31:51;18.13;;;11.15;;
34030;SDS011;20319;28.466;-16.274;2024-01-11T01:34:17;14.68;;;10.30;;
34030;SDS011;20319;28.466;-16.274;2024-01-11T01:36:43;17.30;;;9.63;;
34030;SDS011;20319;28.466;-16.274;2024-01-11T01:39:09;15.07;;;10.30;;
34030;SDS011;20319;28.466;-16.274;2024-01-11T01:41:35;14.60;;;11.77;;
34030;SDS011;20319;28.466;-16.274;2024-01-11T01:44:01;14.25;;;11.30;;
34030;SDS011;20319;28.466;-16.274;2024-01-11T01:46:26;17.05;;;11.02;;
34030;SDS011;20319;28.466;-16.274;2024-01-11T01:48:53;19.20;;;11.73;;
34030;SDS011;20319;28.466;-16.274;2024-01-11T01:51:22;16.58;;;10.88;;
34030;SDS011;20319;28.466;-16.274;2024-01-11T01:53:50;17.48;;;11.00;;
34030;SDS011;20319;28.466;-16.274;2024-01-11T01:56:19;17.58;;;11.40;;
34030;SDS011;20319;28.466;-16.274;2024-01-11T01:58:45;16.45;;;11.60;;
34030;SDS011;20319;28.466;-16.274;2024-01-11T02:01:12;17.73;;;11.80;;
34030;SDS011;20319;28.466;-16.274;2024-01-11T02:03:42;16.30;;;11.50;;
34030;SDS011;20319;28.466;-16.274;2024-01-11T02:06:08;19.08;;;11.98;;
34030;SDS011;20319;28.466;-16.274;2024-01-11T02:08:34;17.90;;;11.75;;
34030;SDS011;20319;28.466;-16.274;2024-01-11T02:11:00;18.45;;;10.75;;
34030;SDS011;20319;28.466;-16.274;2024-01-11T02:13:26;13.10;;;9.57;;
34030;SDS011;20319;28.466;-16.274;2024-01-11T02:15:52;8.73;;;6.70;;
34030;SDS011;20319;28.466;-16.274;2024-01-11T02:18:17;8.65;;;4.47;;
34030;SDS011;20319;28.466;-16.274;2024-01-11T02:20:43;6.28;;;4.40;;
34030;SDS011;20319;28.466;-16.274;2024-01-11T02:23:12;5.03;;;2.90;;
34030;SDS011;20319;28.466;-16.274;2024-01-11T02:25:42;4.47;;;2.90;;
34030;SDS011;20319;28.466;-16.274;2024-01-11T02:28:08;5.63;;;2.78;;
34030;SDS011;20319;28.466;-16.274;2024-01-11T02:30:34;3.90;;;2.50;;
34030;SDS011;20319;28.466;-16.274;2024-01-11T02:32:59;2.97;;;2.28;;
34030;SDS011;20319;28.466;-16.274;2024-01-11T02:35:26;2.42;;;1.95;;
34030;SDS011;20319;28.466;-16.274;2024-01-11T02:37:53;6.20;;;3.10;;
34030;SDS011;20319;28.466;-16.274;2024-01-11T02:40:19;4.93;;;3.10;;
34030;SDS011;20319;28.466;-16.274;2024-01-11T02:42:45;4.65;;;2.50;;
34030;SDS011;20319;28.466;-16.274;2024-01-11T02:45:11;5.95;;;3.20;;
34030;SDS011;20319;28.466;-16.274;2024-01-11T02:47:37;4.95;;;2.78;;
34030;SDS011;20319;28.466;-16.274;2024-01-11T02:50:04;7.53;;;3.55;;
34030;SDS011;20319;28.466;-16.274;2024-01-11T02:52:32;3.92;;;2.65;;
34030;SDS011;20319;28.466;-16.274;2024-01-11T02:54:58;2.80;;;2.15;;
34030;SDS011;20319;28.466;-16.274;2024-01-11T02:57:23;3.50;;;1.40;;
34030;SDS011;20319;28.466;-16.274;2024-01-11T02:59:49;2.83;;;1.20;;
34030;SDS011;20319;28.466;-16.274;2024-01-11T03:02:16;1.60;;;0.95;;
34030;SDS011;20319;28.466;-16.274;2024-01-11T03:04:42;2.63;;;1.00;;
34030;SDS011;20319;28.466;-16.274;2024-01-11T03:07:08;3.38;;;0.80;;
34030;SDS011;20319;28.466;-16.274;2024-01-11T03:09:33;1.50;;;0.70;;
34030;SDS011;20319;28.466;-16.274;2024-01-11T03:11:59;3.22;;;0.90;;
34030;SDS011;20319;28.466;-16.274;2024-01-11T03:14:25;1.17;;;0.80;;
34030;SDS011;20319;28.466;-16.274;2024-01-11T03:16:51;2.75;;;0.80;;
34030;SDS011;20319;28.466;-16.274;2024-01-11T03:19:16;2.88;;;0.68;;
34030;SDS011;20319;28.466;-16.274;2024-01-11T03:21:43;2.25;;;0.80;;
34030;SDS011;20319;28.466;-16.274;2024-01-11T03:24:09;2.30;;;0.70;;
34030;SDS011;20319;28.466;-16.274;2024-01-11T03:26:34;1.48;;;0.65;;
34030;SDS011;20319;28.466;-16.274;2024-01-11T03:29:00;0.82;;;0.57;;
34030;SDS011;20319;28.466;-16.274;2024-01-11T03:31:26;1.98;;;1.00;;
34030;SDS011;20319;28.466;-16.274;2024-01-11T03:33:52;2.13;;;0.80;;
34030;SDS011;20319;28.466;-16.274;2024-01-11T03:36:22;1.35;;;0.65;;
34030;SDS011;20319;28.466;-16.274;2024-01-11T03:38:48;3.50;;;0.80;;
34030;SDS011;20319;28.466;-16.274;2024-01-11T03:41:14;2.03;;;0.82;;
34030;SDS011;20319;28.466;-16.274;2024-01-11T03:43:39;1.88;;;0.80;;
34030;SDS011;20319;28.466;-16.274;2024-01-11T03:46:05;2.20;;;0.60;;
34030;SDS011;20319;28.466;-16.274;2024-01-11T03:48:31;3.08;;;0.73;;
34030;SDS011;20319;28.466;-16.274;2024-01-11T03:50:57;1.70;;;0.98;;
34030;SDS011;20319;28.466;-16.274;2024-01-11T03:53:22;1.90;;;0.90;;
34030;SDS011;20319;28.466;-16.274;2024-01-11T03:55:48;2.03;;;1.13;;
34030;SDS011;20319;28.466;-16.274;2024-01-11T03:58:13;2.58;;;1.00;;
34030;SDS011;20319;28.466;-16.274;2024-01-11T04:00:39;2.50;;;1.13;;
34030;SDS011;20319;28.466;-16.274;2024-01-11T04:03:06;2.58;;;1.20;;
34030;SDS011;20319;28.466;-16.274;2024-01-11T04:05:32;3.88;;;1.17;;
34030;SDS011;20319;28.466;-16.274;2024-01-11T04:07:57;4.30;;;1.05;;
34030;SDS011;20319;28.466;-16.274;2024-01-11T04:10:23;3.40;;;1.40;;
34030;SDS011;20319;28.466;-16.274;2024-01-11T04:12:50;4.75;;;1.45;;
34030;SDS011;20319;28.466;-16.274;2024-01-11T04:15:15;3.85;;;1.50;;
34030;SDS011;20319;28.466;-16.274;2024-01-11T04:17:41;4.45;;;1.35;;
34030;SDS011;20319;28.466;-16.274;2024-01-11T04:20:07;3.42;;;1.15;;
34030;SDS011;20319;28.466;-16.274;2024-01-11T04:22:33;4.93;;;1.33;;
34030;SDS011;20319;28.466;-16.274;2024-01-11T04:24:59;3.90;;;1.50;;
34030;SDS011;20319;28.466;-16.274;2024-01-11T04:27:25;2.50;;;1.38;;
34030;SDS011;20319;28.466;-16.274;2024-01-11T04:29:51;3.95;;;1.02;;
34030;SDS011;20319;28.466;-16.274;2024-01-11T04:32:17;4.28;;;1.10;;
34030;SDS011;20319;28.466;-16.274;2024-01-11T04:34:43;3.50;;;1.23;;
34030;SDS011;20319;28.466;-16.274;2024-01-11T04:37:08;3.38;;;1.02;;
34030;SDS011;20319;28.466;-16.274;2024-01-11T04:39:36;3.17;;;1.25;;
34030;SDS011;20319;28.466;-16.274;2024-01-11T04:42:02;4.32;;;1.15;;
34030;SDS011;20319;28.466;-16.274;2024-01-11T04:44:28;4.57;;;1.08;;
34030;SDS011;20319;28.466;-16.274;2024-01-11T04:46:53;7.97;;;1.38;;
34030;SDS011;20319;28.466;-16.274;2024-01-11T04:49:19;5.50;;;0.95;;
34030;SDS011;20319;28.466;-16.274;2024-01-11T04:51:45;3.80;;;1.02;;
34030;SDS011;20319;28.466;-16.274;2024-01-11T04:54:10;4.82;;;1.70;;
34030;SDS011;20319;28.466;-16.274;2024-01-11T04:56:36;5.90;;;1.00;;
34030;SDS011;20319;28.466;-16.274;2024-01-11T04:59:01;4.55;;;1.25;;
34030;SDS011;20319;28.466;-16.274;2024-01-11T05:01:27;6.38;;;1.38;;
34030;SDS011;20319;28.466;-16.274;2024-01-11T05:03:53;4.45;;;0.90;;
34030;SDS011;20319;28.466;-16.274;2024-01-11T05:06:19;3.25;;;0.82;;
34030;SDS011;20319;28.466;-16.274;2024-01-11T05:08:47;2.53;;;0.82;;
34030;SDS011;20319;28.466;-16.274;2024-01-11T05:11:18;5.22;;;1.08;;
34030;SDS011;20319;28.466;-16.274;2024-01-11T05:13:44;5.75;;;1.13;;
34030;SDS011;20319;28.466;-16.274;2024-01-11T05:18:48;5.28;;;1.67;;
34030;SDS011;20319;28.466;-16.274;2024-01-11T05:21:14;6.60;;;1.30;;
34030;SDS011;20319;28.466;-16.274;2024-01-11T05:23:40;6.82;;;1.40;;
34030;SDS011;20319;28.466;-16.274;2024-01-11T05:26:09;6.07;;;1.58;;
34030;SDS011;20319;28.466;-16.274;2024-01-11T05:28:35;6.32;;;1.60;;
34030;SDS011;20319;28.466;-16.274;2024-01-11T05:31:01;3.40;;;1.17;;
34030;SDS011;20319;28.466;-16.274;2024-01-11T05:33:27;5.25;;;1.10;;
34030;SDS011;20319;28.466;-16.274;2024-01-11T05:35:52;2.88;;;0.75;;
34030;SDS011;20319;28.466;-16.274;2024-01-11T05:38:19;6.60;;;0.90;;
34030;SDS011;20319;28.466;-16.274;2024-01-11T05:40:45;4.65;;;1.45;;
34030;SDS011;20319;28.466;-16.274;2024-01-11T05:43:10;2.80;;;1.42;;
34030;SDS011;20319;28.466;-16.274;2024-01-11T05:45:36;5.32;;;0.98;;
34030;SDS011;20319;28.466;-16.274;2024-01-11T05:48:02;2.10;;;1.20;;
34030;SDS011;20319;28.466;-16.274;2024-01-11T05:50:27;4.53;;;1.00;;
34030;SDS011;20319;28.466;-16.274;2024-01-11T05:52:53;3.40;;;0.90;;
34030;SDS011;20319;28.466;-16.274;2024-01-11T05:55:20;2.47;;;1.13;;
34030;SDS011;20319;28.466;-16.274;2024-01-11T05:57:45;5.55;;;1.35;;
34030;SDS011;20319;28.466;-16.274;2024-01-11T06:00:11;1.50;;;0.90;;
34030;SDS011;20319;28.466;-16.274;2024-01-11T06:02:37;1.85;;;0.95;;
34030;SDS011;20319;28.466;-16.274;2024-01-11T06:05:03;5.00;;;1.10;;
34030;SDS011;20319;28.466;-16.274;2024-01-11T06:07:29;2.15;;;0.73;;
34030;SDS011;20319;28.466;-16.274;2024-01-11T06:09:54;2.65;;;1.13;;
34030;SDS011;20319;28.466;-16.274;2024-01-11T06:12:20;3.17;;;0.80;;
34030;SDS011;20319;28.466;-16.274;2024-01-11T06:14:45;1.40;;;0.88;;
34030;SDS011;20319;28.466;-16.274;2024-01-11T06:17:11;4.07;;;1.20;;
34030;SDS011;20319;28.466;-16.274;2024-01-11T06:19:37;4.72;;;0.80;;
34030;SDS011;20319;28.466;-16.274;2024-01-11T06:22:03;5.55;;;0.90;;
34030;SDS011;20319;28.466;-16.274;2024-01-11T06:24:30;3.60;;;1.10;;
34030;SDS011;20319;28.466;-16.274;2024-01-11T15:47:07;11.73;;;1.92;;
34030;SDS011;20319;28.466;-16.274;2024-01-11T15:49:35;8.82;;;1.98;;
34030;SDS011;20319;28.466;-16.274;2024-01-11T15:52:02;13.35;;;2.78;;
34030;SDS011;20319;28.466;-16.274;2024-01-11T15:54:27;12.90;;;1.92;;
34030;SDS011;20319;28.466;-16.274;2024-01-11T15:56:53;10.10;;;1.90;;
34030;SDS011;20319;28.466;-16.274;2024-01-11T15:59:19;11.45;;;1.92;;
34030;SDS011;20319;28.466;-16.274;2024-01-11T16:01:44;12.68;;;3.95;;
34030;SDS011;20319;28.466;-16.274;2024-01-11T16:04:10;12.63;;;2.30;;
34030;SDS011;20319;28.466;-16.274;2024-01-11T16:06:36;8.05;;;1.95;;
34030;SDS011;20319;28.466;-16.274;2024-01-11T16:09:01;6.47;;;2.00;;
34030;SDS011;20319;28.466;-16.274;2024-01-11T16:11:30;9.77;;;1.83;;
34030;SDS011;20319;28.466;-16.274;2024-01-11T16:13:55;13.02;;;2.30;;
34030;SDS011;20319;28.466;-16.274;2024-01-11T16:16:21;9.10;;;2.25;;
34030;SDS011;20319;28.466;-16.274;2024-01-11T16:18:47;8.25;;;1.90;;
34030;SDS011;20319;28.466;-16.274;2024-01-11T16:21:12;7.05;;;2.60;;
34030;SDS011;20319;28.466;-16.274;2024-01-11T16:23:38;11.68;;;2.53;;
34030;SDS011;20319;28.466;-16.274;2024-01-11T16:26:05;8.43;;;2.03;;
34030;SDS011;20319;28.466;-16.274;2024-01-11T16:28:32;8.85;;;2.00;;
34030;SDS011;20319;28.466;-16.274;2024-01-11T16:30:58;12.30;;;2.63;;
34030;SDS011;20319;28.466;-16.274;2024-01-11T16:33:23;11.93;;;2.28;;
34030;SDS011;20319;28.466;-16.274;2024-01-11T16:35:50;12.20;;;2.38;;
34030;SDS011;20319;28.466;-16.274;2024-01-11T16:38:16;14.45;;;2.25;;
34030;SDS011;20319;28.466;-16.274;2024-01-11T16:40:41;8.70;;;2.33;;
34030;SDS011;20319;28.466;-16.274;2024-01-11T16:43:07;10.10;;;1.83;;
34030;SDS011;20319;28.466;-16.274;2024-01-11T16:45:36;11.43;;;2.00;;
34030;SDS011;20319;28.466;-16.274;2024-01-11T16:48:02;6.57;;;1.73;;
34030;SDS011;20319;28.466;-16.274;2024-01-11T16:50:32;9.05;;;2.05;;
34030;SDS011;20319;28.466;-16.274;2024-01-11T16:52:58;10.23;;;1.98;;
34030;SDS011;20319;28.466;-16.274;2024-01-11T16:55:24;8.95;;;2.00;;
34030;SDS011;20319;28.466;-16.274;2024-01-11T16:57:49;7.13;;;2.03;;
34030;SDS011;20319;28.466;-16.274;2024-01-11T17:00:15;7.05;;;1.83;;
34030;SDS011;20319;28.466;-16.274;2024-01-11T17:02:44;9.65;;;2.13;;
34030;SDS011;20319;28.466;-16.274;2024-01-11T17:05:10;6.57;;;1.73;;
34030;SDS011;20319;28.466;-16.274;2024-01-11T17:07:35;8.10;;;1.88;;
34030;SDS011;20319;28.466;-16.274;2024-01-11T17:10:02;8.77;;;1.65;;
34030;SDS011;20319;28.466;-16.274;2024-01-11T17:12:27;8.05;;;1.92;;
34030;SDS011;20319;28.466;-16.274;2024-01-11T17:14:53;10.43;;;2.00;;
34030;SDS011;20319;28.466;-16.274;2024-01-11T17:17:19;9.35;;;1.75;;
34030;SDS011;20319;28.466;-16.274;2024-01-11T17:19:44;13.50;;;2.10;;
34030;SDS011;20319;28.466;-16.274;2024-01-11T17:22:10;9.35;;;2.17;;
34030;SDS011;20319;28.466;-16.274;2024-01-11T17:24:35;9.40;;;1.80;;
34030;SDS011;20319;28.466;-16.274;2024-01-11T17:27:01;5.95;;;1.92;;
34030;SDS011;20319;28.466;-16.274;2024-01-11T17:29:34;12.07;;;2.28;;
34030;SDS011;20319;28.466;-16.274;2024-01-11T17:32:01;11.70;;;2.35;;
34030;SDS011;20319;28.466;-16.274;2024-01-11T17:34:27;10.77;;;2.38;;
34030;SDS011;20319;28.466;-16.274;2024-01-11T17:36:53;5.65;;;1.85;;
34030;SDS011;20319;28.466;-16.274;2024-01-11T17:39:18;9.05;;;1.77;;
34030;SDS011;20319;28.466;-16.274;2024-01-11T17:41:44;8.50;;;1.95;;
34030;SDS011;20319;28.466;-16.274;2024-01-11T17:44:10;7.35;;;2.42;;
34030;SDS011;20319;28.466;-16.274;2024-01-11T17:46:36;10.48;;;2.63;;
34030;SDS011;20319;28.466;-16.274;2024-01-11T17:49:01;9.30;;;2.42;;
34030;SDS011;20319;28.466;-16.274;2024-01-11T17:51:27;13.98;;;2.22;;
34030;SDS011;20319;28.466;-16.274;2024-01-11T17:53:54;11.90;;;2.60;;
34030;SDS011;20319;28.466;-16.274;2024-01-11T17:56:19;8.80;;;2.00;;
34030;SDS011;20319;28.466;-16.274;2024-01-11T17:58:46;8.20;;;2.08;;
34030;SDS011;20319;28.466;-16.274;2024-01-11T18:01:21;12.15;;;2.50;;
34030;SDS011;20319;28.466;-16.274;2024-01-11T18:03:49;12.07;;;2.22;;
34030;SDS011;20319;28.466;-16.274;2024-01-11T18:06:15;12.18;;;2.00;;
34030;SDS011;20319;28.466;-16.274;2024-01-11T18:08:41;12.40;;;2.72;;
34030;SDS011;20319;28.466;-16.274;2024-01-11T18:11:11;12.80;;;2.50;;
34030;SDS011;20319;28.466;-16.274;2024-01-11T18:13:37;9.63;;;2.50;;
34030;SDS011;20319;28.466;-16.274;2024-01-11T18:16:04;10.40;;;2.38;;
34030;SDS011;20319;28.466;-16.274;2024-01-11T18:18:33;11.30;;;2.72;;
34030;SDS011;20319;28.466;-16.274;2024-01-11T18:20:59;13.63;;;3.13;;
34030;SDS011;20319;28.466;-16.274;2024-01-11T18:23:27;11.95;;;2.38;;
34030;SDS011;20319;28.466;-16.274;2024-01-11T18:25:53;10.07;;;2.47;;
34030;SDS011;20319;28.466;-16.274;2024-01-11T18:28:19;15.80;;;2.47;;
34030;SDS011;20319;28.466;-16.274;2024-01-11T18:30:45;15.90;;;2.58;;
34030;SDS011;20319;28.466;-16.274;2024-01-11T18:33:12;18.05;;;3.47;;
34030;SDS011;20319;28.466;-16.274;2024-01-11T18:35:37;16.25;;;2.38;;
34030;SDS011;20319;28.466;-16.274;2024-01-11T18:38:03;13.85;;;3.05;;
34030;SDS011;20319;28.466;-16.274;2024-01-11T18:40:29;14.32;;;3.10;;
34030;SDS011;20319;28.466;-16.274;2024-01-11T18:42:55;10.70;;;2.50;;
34030;SDS011;20319;28.466;-16.274;2024-01-11T18:45:21;14.85;;;2.50;;
34030;SDS011;20319;28.466;-16.274;2024-01-11T18:47:46;12.05;;;3.17;;
34030;SDS011;20319;28.466;-16.274;2024-01-11T18:50:12;12.90;;;2.00;;
34030;SDS011;20319;28.466;-16.274;2024-01-11T18:52:38;14.80;;;4.18;;
34030;SDS011;20319;28.466;-16.274;2024-01-11T18:55:04;15.02;;;2.70;;
34030;SDS011;20319;28.466;-16.274;2024-01-11T18:57:29;18.02;;;3.05;;
34030;SDS011;20319;28.466;-16.274;2024-01-11T18:59:55;18.70;;;2.63;;
34030;SDS011;20319;28.466;-16.274;2024-01-11T19:02:24;10.70;;;2.80;;
34030;SDS011;20319;28.466;-16.274;2024-01-11T19:04:49;12.90;;;2.80;;
34030;SDS011;20319;28.466;-16.274;2024-01-11T19:07:15;11.25;;;2.78;;
34030;SDS011;20319;28.466;-16.274;2024-01-11T19:09:41;14.90;;;2.90;;
34030;SDS011;20319;28.466;-16.274;2024-01-11T19:12:07;14.20;;;2.80;;
34030;SDS011;20319;28.466;-16.274;2024-01-11T19:14:33;12.32;;;2.42;;
34030;SDS011;20319;28.466;-16.274;2024-01-11T19:17:00;16.70;;;2.72;;
34030;SDS011;20319;28.466;-16.274;2024-01-11T19:19:28;12.75;;;3.10;;
34030;SDS011;20319;28.466;-16.274;2024-01-11T19:21:54;9.45;;;2.38;;
34030;SDS011;20319;28.466;-16.274;2024-01-11T19:24:19;13.52;;;2.83;;
34030;SDS011;20319;28.466;-16.274;2024-01-11T19:26:45;16.70;;;3.47;;
34030;SDS011;20319;28.466;-16.274;2024-01-11T19:29:14;15.23;;;2.63;;
34030;SDS011;20319;28.466;-16.274;2024-01-11T19:31:41;12.27;;;2.45;;
34030;SDS011;20319;28.466;-16.274;2024-01-11T19:34:06;15.32;;;2.65;;
34030;SDS011;20319;28.466;-16.274;2024-01-11T19:36:37;11.88;;;2.33;;
34030;SDS011;20319;28.466;-16.274;2024-01-11T19:39:04;11.27;;;2.65;;
34030;SDS011;20319;28.466;-16.274;2024-01-11T19:41:29;12.88;;;2.95;;
34030;SDS011;20319;28.466;-16.274;2024-01-11T19:43:57;12.90;;;2.67;;
34030;SDS011;20319;28.466;-16.274;2024-01-11T19:46:23;11.23;;;2.38;;
34030;SDS011;20319;28.466;-16.274;2024-01-11T19:48:49;13.50;;;2.60;;
34030;SDS011;20319;28.466;-16.274;2024-01-11T19:51:15;10.57;;;2.35;;
34030;SDS011;20319;28.466;-16.274;2024-01-11T19:53:41;11.82;;;2.55;;
34030;SDS011;20319;28.466;-16.274;2024-01-11T19:58:41;13.50;;;3.20;;
34030;SDS011;20319;28.466;-16.274;2024-01-11T20:01:07;8.48;;;2.50;;
34030;SDS011;20319;28.466;-16.274;2024-01-11T20:03:33;10.45;;;2.72;;
34030;SDS011;20319;28.466;-16.274;2024-01-11T20:05:59;14.20;;;2.67;;
34030;SDS011;20319;28.466;-16.274;2024-01-11T20:08:24;13.63;;;3.63;;
34030;SDS011;20319;28.466;-16.274;2024-01-11T20:10:50;9.05;;;2.97;;
34030;SDS011;20319;28.466;-16.274;2024-01-11T20:13:15;17.13;;;4.90;;
34030;SDS011;20319;28.466;-16.274;2024-01-11T20:15:41;7.60;;;2.75;;
34030;SDS011;20319;28.466;-16.274;2024-01-11T20:18:07;12.18;;;3.00;;
34030;SDS011;20319;28.466;-16.274;2024-01-11T20:20:34;6.95;;;2.00;;
34030;SDS011;20319;28.466;-16.274;2024-01-11T20:23:01;11.27;;;2.40;;
34030;SDS011;20319;28.466;-16.274;2024-01-11T20:25:29;7.05;;;1.85;;
34030;SDS011;20319;28.466;-16.274;2024-01-11T20:27:55;8.48;;;2.35;;
34030;SDS011;20319;28.466;-16.274;2024-01-11T20:30:20;7.68;;;2.35;;
34030;SDS011;20319;28.466;-16.274;2024-01-11T20:32:46;8.80;;;2.28;;
34030;SDS011;20319;28.466;-16.274;2024-01-11T20:35:12;4.80;;;1.60;;
34030;SDS011;20319;28.466;-16.274;2024-01-11T20:37:38;10.30;;;2.15;;
34030;SDS011;20319;28.466;-16.274;2024-01-11T20:40:07;9.20;;;2.00;;
34030;SDS011;20319;28.466;-16.274;2024-01-11T20:42:33;6.43;;;1.77;;
34030;SDS011;20319;28.466;-16.274;2024-01-11T20:45:01;7.65;;;2.05;;
34030;SDS011;20319;28.466;-16.274;2024-01-11T20:47:27;8.32;;;1.90;;
34030;SDS011;20319;28.466;-16.274;2024-01-11T20:49:52;11.10;;;1.95;;
34030;SDS011;20319;28.466;-16.274;2024-01-11T20:52:18;6.88;;;1.88;;
34030;SDS011;20319;28.466;-16.274;2024-01-11T20:54:45;7.35;;;1.90;;
34030;SDS011;20319;28.466;-16.274;2024-01-11T20:57:11;7.10;;;2.50;;
34030;SDS011;20319;28.466;-16.274;2024-01-11T20:59:36;6.50;;;1.85;;
34030;SDS011;20319;28.466;-16.274;2024-01-11T21:02:02;6.25;;;2.00;;
34030;SDS011;20319;28.466;-16.274;2024-01-11T21:04:29;4.82;;;1.70;;
34030;SDS011;20319;28.466;-16.274;2024-01-11T21:06:54;5.38;;;1.92;;
34030;SDS011;20319;28.466;-16.274;2024-01-11T21:09:20;5.30;;;1.50;;
34030;SDS011;20319;28.466;-16.274;2024-01-11T21:11:46;6.30;;;1.65;;
34030;SDS011;20319;28.466;-16.274;2024-01-11T21:14:11;4.13;;;1.73;;
34030;SDS011;20319;28.466;-16.274;2024-01-11T21:16:37;6.07;;;1.83;;
34030;SDS011;20319;28.466;-16.274;2024-01-11T21:19:03;8.73;;;1.85;;
34030;SDS011;20319;28.466;-16.274;2024-01-11T21:21:31;6.43;;;1.45;;
34030;SDS011;20319;28.466;-16.274;2024-01-11T21:23:57;5.75;;;1.80;;
34030;SDS011;20319;28.466;-16.274;2024-01-11T21:26:27;5.78;;;1.95;;
34030;SDS011;20319;28.466;-16.274;2024-01-11T21:28:53;5.40;;;1.70;;
34030;SDS011;20319;28.466;-16.274;2024-01-11T21:31:19;6.30;;;1.70;;
34030;SDS011;20319;28.466;-16.274;2024-01-11T21:33:52;6.45;;;1.80;;
34030;SDS011;20319;28.466;-16.274;2024-01-11T21:36:18;4.40;;;1.80;;
34030;SDS011;20319;28.466;-16.274;2024-01-11T21:38:49;3.28;;;1.42;;
34030;SDS011;20319;28.466;-16.274;2024-01-11T21:41:20;4.70;;;1.40;;
34030;SDS011;20319;28.466;-16.274;2024-01-11T21:43:45;6.90;;;1.80;;
34030;SDS011;20319;28.466;-16.274;2024-01-11T21:46:11;5.22;;;2.10;;
34030;SDS011;20319;28.466;-16.274;2024-01-11T21:48:37;6.57;;;1.58;;
34030;SDS011;20319;28.466;-16.274;2024-01-11T21:51:04;7.88;;;1.45;;
34030;SDS011;20319;28.466;-16.274;2024-01-11T21:53:29;7.32;;;1.60;;
34030;SDS011;20319;28.466;-16.274;2024-01-11T21:55:56;6.07;;;1.73;;
34030;SDS011;20319;28.466;-16.274;2024-01-11T21:58:22;6.03;;;1.83;;
34030;SDS011;20319;28.466;-16.274;2024-01-11T22:00:48;4.07;;;1.60;;
34030;SDS011;20319;28.466;-16.274;2024-01-11T22:03:18;6.05;;;1.75;;
34030;SDS011;20319;28.466;-16.274;2024-01-11T22:05:44;9.02;;;1.70;;
34030;SDS011;20319;28.466;-16.274;2024-01-11T22:08:10;7.90;;;2.10;;
34030;SDS011;20319;28.466;-16.274;2024-01-11T22:10:35;8.02;;;1.80;;
34030;SDS011;20319;28.466;-16.274;2024-01-11T22:13:01;8.20;;;2.10;;
34030;SDS011;20319;28.466;-16.274;2024-01-11T22:15:28;9.95;;;2.08;;
34030;SDS011;20319;28.466;-16.274;2024-01-11T22:17:53;9.77;;;2.47;;
34030;SDS011;20319;28.466;-16.274;2024-01-11T22:20:19;9.73;;;2.00;;
34030;SDS011;20319;28.466;-16.274;2024-01-11T22:22:44;14.10;;;2.42;;
34030;SDS011;20319;28.466;-16.274;2024-01-11T22:25:12;11.30;;;2.70;;
34030;SDS011;20319;28.466;-16.274;2024-01-11T22:27:38;9.73;;;2.03;;
34030;SDS011;20319;28.466;-16.274;2024-01-11T22:30:04;9.48;;;2.53;;
34030;SDS011;20319;28.466;-16.274;2024-01-11T22:32:32;9.27;;;2.28;;
34030;SDS011;20319;28.466;-16.274;2024-01-11T22:35:02;9.45;;;2.50;;
34030;SDS011;20319;28.466;-16.274;2024-01-11T22:37:29;9.60;;;2.25;;
34030;SDS011;20319;28.466;-16.274;2024-01-11T22:39:55;9.80;;;2.60;;
34030;SDS011;20319;28.466;-16.274;2024-01-11T22:42:20;9.60;;;2.08;;
34030;SDS011;20319;28.466;-16.274;2024-01-11T22:44:46;12.05;;;2.33;;
34030;SDS011;20319;28.466;-16.274;2024-01-11T22:47:12;9.98;;;2.78;;
34030;SDS011;20319;28.466;-16.274;2024-01-11T22:49:38;8.73;;;2.00;;
34030;SDS011;20319;28.466;-16.274;2024-01-11T22:52:04;10.55;;;2.20;;
34030;SDS011;20319;28.466;-16.274;2024-01-11T22:54:31;11.13;;;2.28;;
34030;SDS011;20319;28.466;-16.274;2024-01-11T22:56:56;10.98;;;2.40;;
34030;SDS011;20319;28.466;-16.274;2024-01-11T22:59:22;8.90;;;2.30;;
34030;SDS011;20319;28.466;-16.274;2024-01-11T23:01:48;6.80;;;2.13;;
34030;SDS011;20319;28.466;-16.274;2024-01-11T23:04:14;8.63;;;2.17;;
34030;SDS011;20319;28.466;-16.274;2024-01-11T23:06:40;13.25;;;2.53;;
34030;SDS011;20319;28.466;-16.274;2024-01-11T23:09:05;8.35;;;2.00;;
34030;SDS011;20319;28.466;-16.274;2024-01-11T23:11:39;7.47;;;2.55;;
